sensor_id;sensor_type;location;lat;lon;timestamp;pressure;altitude;pressure_sealevel;temperature;humidity
3150;BME280;32503;47.748;8.960;2023-08-06T00:00:00;96293.47;;;17.84;66.53
3150;BME280;32503;47.748;8.960;2023-08-06T00:02:28;96292.72;;;17.84;66.63
3150;BME280;32503;47.748;8.960;2023-08-06T00:04:55;96294.38;;;17.77;66.83
3150;BME280;32503;47.748;8.960;2023-08-06T00:07:22;96293.53;;;17.80;66.78
3150;BME280;32503;47.748;8.960;2023-08-06T00:09:51;96284.22;;;17.78;66.93
3150;BME280;32503;47.748;8.960;2023-08-06T00:12:18;96274.22;;;17.68;67.44
3150;BME280;32503;47.748;8.960;2023-08-06T00:14:45;96277.25;;;17.73;67.41
3150;BME280;32503;47.748;8.960;2023-08-06T00:17:12;96286.19;;;17.77;67.13
3150;BME280;32503;47.748;8.960;2023-08-06T00:19:40;96286.53;;;17.79;66.73
3150;BME280;32503;47.748;8.960;2023-08-06T00:22:07;96290.50;;;17.75;66.79
3150;BME280;32503;47.748;8.960;2023-08-06T00:24:34;96276.19;;;17.67;66.90
3150;BME280;32503;47.748;8.960;2023-08-06T00:27:04;96278.22;;;17.63;67.11
3150;BME280;32503;47.748;8.960;2023-08-06T00:29:31;96278.31;;;17.56;66.93
3150;BME280;32503;47.748;8.960;2023-08-06T00:31:58;96276.06;;;17.51;66.94
3150;BME280;32503;47.748;8.960;2023-08-06T00:34:25;96280.31;;;17.52;66.62
3150;BME280;32503;47.748;8.960;2023-08-06T00:36:52;96283.06;;;17.52;66.57
3150;BME280;32503;47.748;8.960;2023-08-06T00:39:19;96280.78;;;17.47;67.23
3150;BME280;32503;47.748;8.960;2023-08-06T00:41:46;96280.78;;;17.47;67.01
3150;BME280;32503;47.748;8.960;2023-08-06T00:44:15;96273.81;;;17.46;66.95
3150;BME280;32503;47.748;8.960;2023-08-06T00:46:42;96269.09;;;17.46;66.83
3150;BME280;32503;47.748;8.960;2023-08-06T00:49:10;96259.75;;;17.43;67.06
3150;BME280;32503;47.748;8.960;2023-08-06T00:51:37;96256.31;;;17.39;66.99
3150;BME280;32503;47.748;8.960;2023-08-06T00:54:04;96244.31;;;17.33;67.17
3150;BME280;32503;47.748;8.960;2023-08-06T00:56:34;96231.94;;;17.25;67.45
3150;BME280;32503;47.748;8.960;2023-08-06T00:59:02;96247.50;;;17.28;67.71
3150;BME280;32503;47.748;8.960;2023-08-06T01:01:31;96255.34;;;17.26;67.61
3150;BME280;32503;47.748;8.960;2023-08-06T01:03:58;96242.47;;;17.27;67.88
3150;BME280;32503;47.748;8.960;2023-08-06T01:06:44;96236.59;;;17.28;67.81
3150;BME280;32503;47.748;8.960;2023-08-06T01:09:27;96233.84;;;17.28;67.51
3150;BME280;32503;47.748;8.960;2023-08-06T01:12:06;96235.84;;;17.24;67.69
3150;BME280;32503;47.748;8.960;2023-08-06T01:14:44;96219.72;;;17.06;67.91
3150;BME280;32503;47.748;8.960;2023-08-06T01:17:14;96233.78;;;17.04;68.05
3150;BME280;32503;47.748;8.960;2023-08-06T01:19:42;96225.31;;;16.99;68.65
3150;BME280;32503;47.748;8.960;2023-08-06T01:22:10;96220.72;;;16.92;68.50
3150;BME280;32503;47.748;8.960;2023-08-06T01:24:37;96211.03;;;16.88;68.41
3150;BME280;32503;47.748;8.960;2023-08-06T01:27:10;96205.69;;;16.77;68.74
3150;BME280;32503;47.748;8.960;2023-08-06T01:29:43;96187.16;;;16.64;68.74
3150;BME280;32503;47.748;8.960;2023-08-06T01:32:12;96198.38;;;16.70;69.17
3150;BME280;32503;47.748;8.960;2023-08-06T01:34:42;96190.75;;;16.58;69.33
3150;BME280;32503;47.748;8.960;2023-08-06T01:37:12;96202.06;;;16.56;69.95
3150;BME280;32503;47.748;8.960;2023-08-06T01:39:42;96201.69;;;16.54;69.76
3150;BME280;32503;47.748;8.960;2023-08-06T01:42:09;96189.41;;;16.39;70.10
3150;BME280;32503;47.748;8.960;2023-08-06T01:44:36;96208.19;;;16.33;70.65
3150;BME280;32503;47.748;8.960;2023-08-06T01:47:04;96212.13;;;16.28;71.11
3150;BME280;32503;47.748;8.960;2023-08-06T01:49:31;96192.03;;;16.15;71.03
3150;BME280;32503;47.748;8.960;2023-08-06T01:51:59;96216.78;;;16.32;70.60
3150;BME280;32503;47.748;8.960;2023-08-06T01:54:27;96227.31;;;16.29;70.49
3150;BME280;32503;47.748;8.960;2023-08-06T01:56:54;96216.06;;;16.27;70.82
3150;BME280;32503;47.748;8.960;2023-08-06T01:59:24;96212.53;;;16.27;70.75
3150;BME280;32503;47.748;8.960;2023-08-06T02:01:51;96205.94;;;16.24;70.60
3150;BME280;32503;47.748;8.960;2023-08-06T02:04:18;96200.50;;;16.24;70.72
3150;BME280;32503;47.748;8.960;2023-08-06T02:06:45;96191.16;;;16.25;70.80
3150;BME280;32503;47.748;8.960;2023-08-06T02:09:12;96185.69;;;16.25;70.59
3150;BME280;32503;47.748;8.960;2023-08-06T02:11:41;96174.47;;;16.16;70.60
3150;BME280;32503;47.748;8.960;2023-08-06T02:14:09;96197.41;;;16.22;70.54
3150;BME280;32503;47.748;8.960;2023-08-06T02:16:36;96193.94;;;16.18;70.39
3150;BME280;32503;47.748;8.960;2023-08-06T02:19:03;96186.59;;;16.15;70.79
3150;BME280;32503;47.748;8.960;2023-08-06T02:21:30;96192.03;;;16.15;70.39
3150;BME280;32503;47.748;8.960;2023-08-06T02:23:57;96186.19;;;16.17;70.56
3150;BME280;32503;47.748;8.960;2023-08-06T02:26:24;96186.53;;;16.19;70.50
3150;BME280;32503;47.748;8.960;2023-08-06T02:28:53;96177.75;;;16.04;70.73
3150;BME280;32503;47.748;8.960;2023-08-06T02:31:20;96181.94;;;16.12;70.46
3150;BME280;32503;47.748;8.960;2023-08-06T02:33:47;96175.00;;;16.04;70.79
3150;BME280;32503;47.748;8.960;2023-08-06T02:36:14;96178.25;;;15.91;71.58
3150;BME280;32503;47.748;8.960;2023-08-06T02:38:41;96182.91;;;15.95;71.72
3150;BME280;32503;47.748;8.960;2023-08-06T02:41:08;96190.66;;;16.00;71.71
3150;BME280;32503;47.748;8.960;2023-08-06T02:43:35;96187.47;;;16.05;71.51
3150;BME280;32503;47.748;8.960;2023-08-06T02:46:04;96186.66;;;16.08;71.14
3150;BME280;32503;47.748;8.960;2023-08-06T02:48:31;96172.94;;;16.15;71.18
3150;BME280;32503;47.748;8.960;2023-08-06T02:50:59;96176.34;;;16.23;70.48
3150;BME280;32503;47.748;8.960;2023-08-06T02:53:26;96167.00;;;16.24;70.04
3150;BME280;32503;47.748;8.960;2023-08-06T02:55:53;96169.97;;;16.37;69.89
3150;BME280;32503;47.748;8.960;2023-08-06T02:58:21;96165.97;;;16.45;69.16
3150;BME280;32503;47.748;8.960;2023-08-06T03:01:00;96163.59;;;16.47;68.45
3150;BME280;32503;47.748;8.960;2023-08-06T03:03:29;96160.41;;;16.52;68.43
3150;BME280;32503;47.748;8.960;2023-08-06T03:05:57;96152.19;;;16.56;68.33
3150;BME280;32503;47.748;8.960;2023-08-06T03:08:24;96151.38;;;16.55;68.32
3150;BME280;32503;47.748;8.960;2023-08-06T03:10:52;96148.72;;;16.52;68.12
3150;BME280;32503;47.748;8.960;2023-08-06T03:13:19;96133.94;;;16.49;67.97
3150;BME280;32503;47.748;8.960;2023-08-06T03:15:52;96139.31;;;16.56;68.20
3150;BME280;32503;47.748;8.960;2023-08-06T03:18:20;96140.88;;;16.57;67.91
3150;BME280;32503;47.748;8.960;2023-08-06T03:20:49;96145.13;;;16.58;67.18
3150;BME280;32503;47.748;8.960;2023-08-06T03:23:16;96137.75;;;16.55;66.86
3150;BME280;32503;47.748;8.960;2023-08-06T03:25:43;96138.09;;;16.61;66.56
3150;BME280;32503;47.748;8.960;2023-08-06T03:28:11;96144.31;;;16.61;66.45
3150;BME280;32503;47.748;8.960;2023-08-06T03:30:38;96142.28;;;16.65;66.35
3150;BME280;32503;47.748;8.960;2023-08-06T03:33:05;96145.38;;;16.67;66.34
3150;BME280;32503;47.748;8.960;2023-08-06T03:35:32;96147.75;;;16.65;65.99
3150;BME280;32503;47.748;8.960;2023-08-06T03:38:00;96153.16;;;16.69;66.02
3150;BME280;32503;47.748;8.960;2023-08-06T03:40:28;96160.22;;;16.66;66.65
3150;BME280;32503;47.748;8.960;2023-08-06T03:42:55;96159.13;;;16.60;66.66
3150;BME280;32503;47.748;8.960;2023-08-06T03:45:22;96157.94;;;16.61;66.60
3150;BME280;32503;47.748;8.960;2023-08-06T03:47:49;96165.28;;;16.68;65.91
3150;BME280;32503;47.748;8.960;2023-08-06T03:50:16;96157.50;;;16.66;66.40
3150;BME280;32503;47.748;8.960;2023-08-06T03:52:43;96157.50;;;16.66;66.54
3150;BME280;32503;47.748;8.960;2023-08-06T03:55:11;96164.88;;;16.70;66.19
3150;BME280;32503;47.748;8.960;2023-08-06T03:57:38;96157.84;;;16.68;66.80
3150;BME280;32503;47.748;8.960;2023-08-06T04:00:07;96164.41;;;16.75;67.10
3150;BME280;32503;47.748;8.960;2023-08-06T04:02:34;96162.50;;;16.72;67.63
3150;BME280;32503;47.748;8.960;2023-08-06T04:05:01;96161.28;;;16.73;67.47
3150;BME280;32503;47.748;8.960;2023-08-06T04:07:29;96168.75;;;16.68;68.03
3150;BME280;32503;47.748;8.960;2023-08-06T04:09:58;96171.50;;;16.68;68.91
3150;BME280;32503;47.748;8.960;2023-08-06T04:12:27;96170.72;;;16.68;69.14
3150;BME280;32503;47.748;8.960;2023-08-06T04:14:56;96168.75;;;16.68;69.10
3150;BME280;32503;47.748;8.960;2023-08-06T04:17:24;96174.63;;;16.67;69.13
3150;BME280;32503;47.748;8.960;2023-08-06T04:19:53;96163.81;;;16.60;69.45
3150;BME280;32503;47.748;8.960;2023-08-06T04:22:21;96182.75;;;16.71;69.70
3150;BME280;32503;47.748;8.960;2023-08-06T04:24:48;96179.78;;;16.61;70.18
3150;BME280;32503;47.748;8.960;2023-08-06T04:27:18;96178.59;;;16.62;70.30
3150;BME280;32503;47.748;8.960;2023-08-06T04:29:47;96176.69;;;16.59;70.44
3150;BME280;32503;47.748;8.960;2023-08-06T04:32:14;96186.50;;;16.53;70.85
3150;BME280;32503;47.748;8.960;2023-08-06T04:34:41;96178.78;;;16.48;71.09
3150;BME280;32503;47.748;8.960;2023-08-06T04:37:09;96189.72;;;16.44;71.42
3150;BME280;32503;47.748;8.960;2023-08-06T04:39:36;96201.13;;;16.36;71.74
3150;BME280;32503;47.748;8.960;2023-08-06T04:42:04;96200.31;;;16.39;71.80
3150;BME280;32503;47.748;8.960;2023-08-06T04:44:31;96199.56;;;16.38;71.48
3150;BME280;32503;47.748;8.960;2023-08-06T04:46:59;96194.09;;;16.38;72.01
3150;BME280;32503;47.748;8.960;2023-08-06T04:49:26;96198.03;;;16.34;72.07
3150;BME280;32503;47.748;8.960;2023-08-06T04:51:53;96202.41;;;16.27;72.16
3150;BME280;32503;47.748;8.960;2023-08-06T04:54:21;96203.94;;;16.28;71.75
3150;BME280;32503;47.748;8.960;2023-08-06T04:56:48;96210.25;;;16.25;72.13
3150;BME280;32503;47.748;8.960;2023-08-06T04:59:15;96206.34;;;16.23;72.45
3150;BME280;32503;47.748;8.960;2023-08-06T05:01:42;96208.22;;;16.29;72.18
3150;BME280;32503;47.748;8.960;2023-08-06T05:04:10;96203.13;;;16.32;71.84
3150;BME280;32503;47.748;8.960;2023-08-06T05:06:37;96196.91;;;16.31;72.14
3150;BME280;32503;47.748;8.960;2023-08-06T05:09:06;96195.41;;;16.26;71.30
3150;BME280;32503;47.748;8.960;2023-08-06T05:11:33;96199.72;;;16.24;71.48
3150;BME280;32503;47.748;8.960;2023-08-06T05:14:00;96200.19;;;16.19;71.78
3150;BME280;32503;47.748;8.960;2023-08-06T05:16:27;96202.06;;;16.25;71.41
3150;BME280;32503;47.748;8.960;2023-08-06T05:18:54;96202.91;;;16.19;71.12
3150;BME280;32503;47.748;8.960;2023-08-06T05:21:26;96204.78;;;16.25;70.74
3150;BME280;32503;47.748;8.960;2023-08-06T05:23:53;96206.75;;;16.21;70.51
3150;BME280;32503;47.748;8.960;2023-08-06T05:26:20;96216.91;;;16.21;70.05
3150;BME280;32503;47.748;8.960;2023-08-06T05:28:47;96220.03;;;16.19;70.02
3150;BME280;32503;47.748;8.960;2023-08-06T05:31:14;96225.25;;;16.06;70.23
3150;BME280;32503;47.748;8.960;2023-08-06T05:33:41;96245.44;;;16.09;69.86
3150;BME280;32503;47.748;8.960;2023-08-06T05:36:08;96241.28;;;16.01;69.46
3150;BME280;32503;47.748;8.960;2023-08-06T05:38:37;96240.84;;;16.02;69.64
3150;BME280;32503;47.748;8.960;2023-08-06T05:41:04;96248.66;;;16.00;69.41
3150;BME280;32503;47.748;8.960;2023-08-06T05:43:31;96255.22;;;16.06;68.97
3150;BME280;32503;47.748;8.960;2023-08-06T05:45:58;96253.34;;;16.00;69.23
3150;BME280;32503;47.748;8.960;2023-08-06T05:48:25;96256.50;;;15.95;68.92
3150;BME280;32503;47.748;8.960;2023-08-06T05:50:53;96249.44;;;16.01;68.97
3150;BME280;32503;47.748;8.960;2023-08-06T05:53:20;96242.84;;;15.98;69.25
3150;BME280;32503;47.748;8.960;2023-08-06T05:55:49;96241.28;;;16.01;68.82
3150;BME280;32503;47.748;8.960;2023-08-06T05:58:16;96255.38;;;15.92;68.69
3150;BME280;32503;47.748;8.960;2023-08-06T06:00:45;96251.47;;;15.89;69.16
3150;BME280;32503;47.748;8.960;2023-08-06T06:03:12;96259.25;;;15.91;68.87
3150;BME280;32503;47.748;8.960;2023-08-06T06:05:40;96265.44;;;15.95;68.80
3150;BME280;32503;47.748;8.960;2023-08-06T06:08:07;96268.56;;;15.97;69.20
3150;BME280;32503;47.748;8.960;2023-08-06T06:10:35;96263.91;;;15.94;68.87
3150;BME280;32503;47.748;8.960;2023-08-06T06:13:03;96277.06;;;16.03;68.66
3150;BME280;32503;47.748;8.960;2023-08-06T06:15:30;96240.72;;;15.75;68.91
3150;BME280;32503;47.748;8.960;2023-08-06T06:17:57;96283.63;;;16.09;68.46
3150;BME280;32503;47.748;8.960;2023-08-06T06:20:24;96283.31;;;16.00;68.30
3150;BME280;32503;47.748;8.960;2023-08-06T06:22:52;96277.88;;;16.00;68.37
3150;BME280;32503;47.748;8.960;2023-08-06T06:25:19;96273.56;;;16.06;68.54
3150;BME280;32503;47.748;8.960;2023-08-06T06:27:46;96273.00;;;16.18;68.00
3150;BME280;32503;47.748;8.960;2023-08-06T06:30:14;96275.69;;;16.25;68.04
3150;BME280;32503;47.748;8.960;2023-08-06T06:32:41;96286.00;;;16.45;67.73
3150;BME280;32503;47.748;8.960;2023-08-06T06:35:08;96273.00;;;16.56;67.42
3150;BME280;32503;47.748;8.960;2023-08-06T06:37:36;96274.41;;;17.02;65.56
3150;BME280;32503;47.748;8.960;2023-08-06T06:40:04;96274.97;;;17.44;63.83
3150;BME280;32503;47.748;8.960;2023-08-06T06:42:31;96282.13;;;17.62;62.97
3150;BME280;32503;47.748;8.960;2023-08-06T06:44:58;96289.00;;;17.47;62.97
3150;BME280;32503;47.748;8.960;2023-08-06T06:47:27;96290.03;;;17.29;62.79
3150;BME280;32503;47.748;8.960;2023-08-06T06:49:54;96292.75;;;17.29;63.19
3150;BME280;32503;47.748;8.960;2023-08-06T06:52:21;96295.28;;;17.16;63.52
3150;BME280;32503;47.748;8.960;2023-08-06T06:54:48;96279.53;;;16.97;65.21
3150;BME280;32503;47.748;8.960;2023-08-06T06:57:15;96295.31;;;16.85;65.27
3150;BME280;32503;47.748;8.960;2023-08-06T06:59:42;96296.94;;;16.76;65.53
3150;BME280;32503;47.748;8.960;2023-08-06T07:02:09;96296.56;;;16.74;65.96
3150;BME280;32503;47.748;8.960;2023-08-06T07:04:38;96304.50;;;16.64;65.90
3150;BME280;32503;47.748;8.960;2023-08-06T07:07:05;96304.66;;;16.50;67.15
3150;BME280;32503;47.748;8.960;2023-08-06T07:09:32;96305.88;;;16.45;66.91
3150;BME280;32503;47.748;8.960;2023-08-06T07:11:59;96307.59;;;16.28;66.47
3150;BME280;32503;47.748;8.960;2023-08-06T07:14:28;96304.09;;;16.28;67.09
3150;BME280;32503;47.748;8.960;2023-08-06T07:16:55;96306.84;;;16.24;67.14
3150;BME280;32503;47.748;8.960;2023-08-06T07:19:23;96311.78;;;16.37;66.83
3150;BME280;32503;47.748;8.960;2023-08-06T07:21:52;96310.31;;;16.28;67.87
3150;BME280;32503;47.748;8.960;2023-08-06T07:24:19;96317.84;;;16.17;68.30
3150;BME280;32503;47.748;8.960;2023-08-06T07:26:46;96319.81;;;16.13;68.71
3150;BME280;32503;47.748;8.960;2023-08-06T07:29:14;96309.75;;;16.06;69.09
3150;BME280;32503;47.748;8.960;2023-08-06T07:31:45;96321.78;;;16.09;69.58
3150;BME280;32503;47.748;8.960;2023-08-06T07:34:12;96325.78;;;16.01;69.64
3150;BME280;32503;47.748;8.960;2023-08-06T07:36:39;96328.44;;;16.08;69.00
3150;BME280;32503;47.748;8.960;2023-08-06T07:39:08;96324.13;;;16.10;69.60
3150;BME280;32503;47.748;8.960;2023-08-06T07:41:35;96321.81;;;16.05;69.19
3150;BME280;32503;47.748;8.960;2023-08-06T07:44:02;96324.09;;;16.14;69.22
3150;BME280;32503;47.748;8.960;2023-08-06T07:46:30;96330.72;;;16.13;68.66
3150;BME280;32503;47.748;8.960;2023-08-06T07:48:57;96341.59;;;16.17;69.15
3150;BME280;32503;47.748;8.960;2023-08-06T07:51:24;96329.44;;;16.25;68.88
3150;BME280;32503;47.748;8.960;2023-08-06T07:53:51;96329.41;;;16.28;68.67
3150;BME280;32503;47.748;8.960;2023-08-06T07:56:20;96330.84;;;16.40;68.87
3150;BME280;32503;47.748;8.960;2023-08-06T07:58:47;96330.84;;;16.40;68.26
3150;BME280;32503;47.748;8.960;2023-08-06T08:01:14;96335.91;;;16.42;69.02
3150;BME280;32503;47.748;8.960;2023-08-06T08:03:41;96332.78;;;16.43;67.93
3150;BME280;32503;47.748;8.960;2023-08-06T08:06:08;96329.22;;;16.50;68.25
3150;BME280;32503;47.748;8.960;2023-08-06T08:08:35;96325.00;;;16.42;67.95
3150;BME280;32503;47.748;8.960;2023-08-06T08:11:05;96332.81;;;16.40;68.62
3150;BME280;32503;47.748;8.960;2023-08-06T08:13:34;96326.66;;;16.28;68.59
3150;BME280;32503;47.748;8.960;2023-08-06T08:16:01;96327.94;;;16.20;68.98
3150;BME280;32503;47.748;8.960;2023-08-06T08:18:28;96327.66;;;16.07;69.00
3150;BME280;32503;47.748;8.960;2023-08-06T08:20:57;96326.50;;;16.05;69.37
3150;BME280;32503;47.748;8.960;2023-08-06T08:23:24;96319.91;;;16.06;69.35
3150;BME280;32503;47.748;8.960;2023-08-06T08:25:51;96328.84;;;16.06;69.31
3150;BME280;32503;47.748;8.960;2023-08-06T08:28:18;96333.16;;;16.00;69.55
3150;BME280;32503;47.748;8.960;2023-08-06T08:30:47;96336.91;;;16.17;70.14
3150;BME280;32503;47.748;8.960;2023-08-06T08:33:14;96323.16;;;16.32;69.71
3150;BME280;32503;47.748;8.960;2023-08-06T08:35:41;96315.94;;;16.10;69.30
3150;BME280;32503;47.748;8.960;2023-08-06T08:38:08;96348.06;;;16.34;69.25
3150;BME280;32503;47.748;8.960;2023-08-06T08:40:39;96349.69;;;16.27;69.12
3150;BME280;32503;47.748;8.960;2023-08-06T08:43:11;96353.88;;;16.36;69.33
3150;BME280;32503;47.748;8.960;2023-08-06T08:45:40;96345.63;;;16.43;68.92
3150;BME280;32503;47.748;8.960;2023-08-06T08:48:12;96358.56;;;16.35;67.85
3150;BME280;32503;47.748;8.960;2023-08-06T08:50:40;96363.84;;;16.53;68.32
3150;BME280;32503;47.748;8.960;2023-08-06T08:53:09;96364.09;;;16.70;68.29
3150;BME280;32503;47.748;8.960;2023-08-06T08:55:38;96361.34;;;16.70;67.85
3150;BME280;32503;47.748;8.960;2023-08-06T08:58:06;96369.47;;;16.77;67.26
3150;BME280;32503;47.748;8.960;2023-08-06T09:00:34;96354.34;;;16.68;67.44
3150;BME280;32503;47.748;8.960;2023-08-06T09:03:05;96363.50;;;16.89;67.07
3150;BME280;32503;47.748;8.960;2023-08-06T09:05:34;96373.97;;;16.94;66.73
3150;BME280;32503;47.748;8.960;2023-08-06T09:08:03;96368.03;;;17.03;66.87
3150;BME280;32503;47.748;8.960;2023-08-06T09:10:31;96377.88;;;17.24;66.25
3150;BME280;32503;47.748;8.960;2023-08-06T09:12:58;96366.03;;;17.65;65.98
3150;BME280;32503;47.748;8.960;2023-08-06T09:15:27;96389.59;;;17.83;65.19
3150;BME280;32503;47.748;8.960;2023-08-06T09:17:55;96384.34;;;17.95;65.31
3150;BME280;32503;47.748;8.960;2023-08-06T09:20:22;96381.91;;;17.74;66.41
3150;BME280;32503;47.748;8.960;2023-08-06T09:22:53;96376.13;;;17.68;65.50
3150;BME280;32503;47.748;8.960;2023-08-06T09:25:22;96384.38;;;17.65;65.66
3150;BME280;32503;47.748;8.960;2023-08-06T09:27:51;96391.44;;;17.62;65.51
3150;BME280;32503;47.748;8.960;2023-08-06T09:30:29;96377.22;;;17.74;65.19
3150;BME280;32503;47.748;8.960;2023-08-06T09:32:58;96385.63;;;17.60;64.65
3150;BME280;32503;47.748;8.960;2023-08-06T09:35:28;96392.09;;;17.70;65.30
3150;BME280;32503;47.748;8.960;2023-08-06T09:38:05;96388.66;;;17.93;64.62
3150;BME280;32503;47.748;8.960;2023-08-06T09:40:33;96387.28;;;18.32;63.55
3150;BME280;32503;47.748;8.960;2023-08-06T09:43:00;96386.81;;;18.81;62.20
3150;BME280;32503;47.748;8.960;2023-08-06T09:45:30;96388.91;;;19.17;60.14
3150;BME280;32503;47.748;8.960;2023-08-06T09:47:59;96387.31;;;19.36;58.88
3150;BME280;32503;47.748;8.960;2023-08-06T09:50:30;96393.97;;;19.55;58.89
3150;BME280;32503;47.748;8.960;2023-08-06T09:53:00;96394.38;;;19.53;59.30
3150;BME280;32503;47.748;8.960;2023-08-06T09:55:30;96391.94;;;19.39;58.57
3150;BME280;32503;47.748;8.960;2023-08-06T09:57:59;96395.03;;;19.41;58.65
3150;BME280;32503;47.748;8.960;2023-08-06T10:00:26;96415.34;;;19.23;58.63
3150;BME280;32503;47.748;8.960;2023-08-06T10:02:55;96416.56;;;19.22;58.40
3150;BME280;32503;47.748;8.960;2023-08-06T10:05:27;96409.59;;;19.18;59.45
3150;BME280;32503;47.748;8.960;2023-08-06T10:07:54;96421.41;;;18.94;59.59
3150;BME280;32503;47.748;8.960;2023-08-06T10:10:24;96420.22;;;18.72;61.87
3150;BME280;32503;47.748;8.960;2023-08-06T10:12:54;96415.59;;;18.45;62.39
3150;BME280;32503;47.748;8.960;2023-08-06T10:15:26;96410.00;;;18.29;62.84
3150;BME280;32503;47.748;8.960;2023-08-06T10:17:57;96413.63;;;18.22;63.55
3150;BME280;32503;47.748;8.960;2023-08-06T10:20:25;96406.06;;;18.06;64.09
3150;BME280;32503;47.748;8.960;2023-08-06T10:23:10;96413.47;;;17.78;64.12
3150;BME280;32503;47.748;8.960;2023-08-06T10:25:42;96411.66;;;17.68;64.78
3150;BME280;32503;47.748;8.960;2023-08-06T10:28:10;96417.69;;;17.56;65.42
3150;BME280;32503;47.748;8.960;2023-08-06T10:30:42;96413.94;;;17.73;65.14
3150;BME280;32503;47.748;8.960;2023-08-06T10:33:10;96418.13;;;17.81;64.68
3150;BME280;32503;47.748;8.960;2023-08-06T10:35:41;96418.19;;;18.05;64.74
3150;BME280;32503;47.748;8.960;2023-08-06T10:38:12;96431.13;;;18.28;63.20
3150;BME280;32503;47.748;8.960;2023-08-06T10:40:48;96426.75;;;18.54;62.19
3150;BME280;32503;47.748;8.960;2023-08-06T10:43:26;96434.44;;;18.63;61.65
3150;BME280;32503;47.748;8.960;2023-08-06T10:45:52;96416.78;;;18.68;60.25
3150;BME280;32503;47.748;8.960;2023-08-06T10:48:30;96412.47;;;18.67;59.78
3150;BME280;32503;47.748;8.960;2023-08-06T10:51:00;96424.28;;;18.87;59.29
3150;BME280;32503;47.748;8.960;2023-08-06T10:53:30;96419.91;;;18.90;59.14
3150;BME280;32503;47.748;8.960;2023-08-06T10:55:59;96433.59;;;18.90;58.85
3150;BME280;32503;47.748;8.960;2023-08-06T10:58:32;96437.84;;;18.94;59.33
3150;BME280;32503;47.748;8.960;2023-08-06T11:01:00;96414.50;;;18.86;58.65
3150;BME280;32503;47.748;8.960;2023-08-06T11:03:27;96433.44;;;19.21;58.66
3150;BME280;32503;47.748;8.960;2023-08-06T11:05:54;96420.06;;;19.43;58.08
3150;BME280;32503;47.748;8.960;2023-08-06T11:08:26;96415.47;;;19.56;57.09
3150;BME280;32503;47.748;8.960;2023-08-06T11:10:53;96436.81;;;19.85;55.66
3150;BME280;32503;47.748;8.960;2023-08-06T11:13:22;96438.38;;;19.86;55.46
3150;BME280;32503;47.748;8.960;2023-08-06T11:15:52;96424.22;;;19.87;55.43
3150;BME280;32503;47.748;8.960;2023-08-06T11:18:20;96416.59;;;19.79;56.16
3150;BME280;32503;47.748;8.960;2023-08-06T11:20:47;96419.94;;;19.86;55.42
3150;BME280;32503;47.748;8.960;2023-08-06T11:23:15;96428.09;;;19.90;55.53
3150;BME280;32503;47.748;8.960;2023-08-06T11:25:44;96427.91;;;19.97;55.77
3150;BME280;32503;47.748;8.960;2023-08-06T11:28:12;96427.00;;;20.04;55.29
3150;BME280;32503;47.748;8.960;2023-08-06T11:30:40;96435.84;;;20.28;55.09
3150;BME280;32503;47.748;8.960;2023-08-06T11:33:07;96434.63;;;20.45;54.33
3150;BME280;32503;47.748;8.960;2023-08-06T11:35:36;96423.66;;;20.62;53.17
3150;BME280;32503;47.748;8.960;2023-08-06T11:38:05;96434.59;;;20.78;53.81
3150;BME280;32503;47.748;8.960;2023-08-06T11:40:33;96427.16;;;20.62;52.63
3150;BME280;32503;47.748;8.960;2023-08-06T11:43:02;96453.50;;;20.60;52.59
3150;BME280;32503;47.748;8.960;2023-08-06T11:45:29;96441.91;;;20.36;52.89
3150;BME280;32503;47.748;8.960;2023-08-06T11:47:58;96453.16;;;20.41;53.54
3150;BME280;32503;47.748;8.960;2023-08-06T11:50:26;96454.28;;;20.44;52.79
3150;BME280;32503;47.748;8.960;2023-08-06T11:52:56;96454.88;;;20.35;53.22
3150;BME280;32503;47.748;8.960;2023-08-06T11:55:25;96454.72;;;20.26;52.89
3150;BME280;32503;47.748;8.960;2023-08-06T11:57:54;96451.00;;;20.16;53.25
3150;BME280;32503;47.748;8.960;2023-08-06T12:00:24;96454.59;;;19.97;53.88
3150;BME280;32503;47.748;8.960;2023-08-06T12:02:52;96454.31;;;19.71;54.26
3150;BME280;32503;47.748;8.960;2023-08-06T12:05:23;96456.59;;;19.56;54.44
3150;BME280;32503;47.748;8.960;2023-08-06T12:07:52;96452.78;;;19.50;53.85
3150;BME280;32503;47.748;8.960;2023-08-06T12:10:21;96462.56;;;19.51;54.54
3150;BME280;32503;47.748;8.960;2023-08-06T12:12:49;96459.09;;;19.67;54.64
3150;BME280;32503;47.748;8.960;2023-08-06T12:15:17;96444.72;;;19.63;54.59
3150;BME280;32503;47.748;8.960;2023-08-06T12:17:44;96471.09;;;19.77;54.17
3150;BME280;32503;47.748;8.960;2023-08-06T12:20:12;96471.88;;;19.57;53.57
3150;BME280;32503;47.748;8.960;2023-08-06T12:22:40;96486.91;;;19.49;54.04
3150;BME280;32503;47.748;8.960;2023-08-06T12:25:10;96475.44;;;19.54;54.29
3150;BME280;32503;47.748;8.960;2023-08-06T12:27:40;96477.41;;;19.74;53.60
3150;BME280;32503;47.748;8.960;2023-08-06T12:30:08;96488.38;;;19.74;53.74
3150;BME280;32503;47.748;8.960;2023-08-06T12:32:35;96480.16;;;19.74;53.19
3150;BME280;32503;47.748;8.960;2023-08-06T12:35:03;96489.16;;;19.74;53.61
3150;BME280;32503;47.748;8.960;2023-08-06T12:37:30;96467.06;;;19.61;54.50
3150;BME280;32503;47.748;8.960;2023-08-06T12:39:59;96476.09;;;19.82;54.01
3150;BME280;32503;47.748;8.960;2023-08-06T12:42:26;96498.41;;;20.00;53.63
3150;BME280;32503;47.748;8.960;2023-08-06T12:44:53;96493.75;;;19.97;52.78
3150;BME280;32503;47.748;8.960;2023-08-06T12:47:20;96500.13;;;19.74;53.39
3150;BME280;32503;47.748;8.960;2023-08-06T12:49:47;96489.69;;;19.65;53.73
3150;BME280;32503;47.748;8.960;2023-08-06T12:52:15;96495.13;;;19.49;53.85
3150;BME280;32503;47.748;8.960;2023-08-06T12:54:42;96494.34;;;19.28;54.51
3150;BME280;32503;47.748;8.960;2023-08-06T12:57:13;96495.88;;;19.29;54.51
3150;BME280;32503;47.748;8.960;2023-08-06T12:59:40;96500.28;;;19.03;55.62
3150;BME280;32503;47.748;8.960;2023-08-06T13:02:07;96510.19;;;18.97;56.84
3150;BME280;32503;47.748;8.960;2023-08-06T13:04:34;96497.03;;;18.88;58.07
3150;BME280;32503;47.748;8.960;2023-08-06T13:07:01;96505.31;;;18.85;58.39
3150;BME280;32503;47.748;8.960;2023-08-06T13:09:28;96502.56;;;18.85;57.67
3150;BME280;32503;47.748;8.960;2023-08-06T13:11:56;96509.59;;;18.86;58.63
3150;BME280;32503;47.748;8.960;2023-08-06T13:14:25;96493.78;;;18.70;58.72